createdAt,value
2018-11-26T00:00:24.114Z,29.27
2018-11-26T00:01:29.643Z,32.57
2018-11-26T00:02:35.224Z,30.70
2018-11-26T00:03:40.783Z,29.50
2018-11-26T00:04:46.286Z,29.90
2018-11-26T00:05:51.821Z,28.63
2018-11-26T00:06:57.350Z,33.40
2018-11-26T00:08:02.866Z,33.20
2018-11-26T00:09:09.354Z,31.90
2018-11-26T00:11:29.330Z,30.70
2018-11-26T00:12:34.850Z,30.47
2018-11-26T00:13:40.351Z,27.90
2018-11-26T00:14:45.889Z,30.20
2018-11-26T00:15:51.453Z,29.13
2018-11-26T00:16:57.175Z,31.60
2018-11-26T00:18:02.657Z,31.97
2018-11-26T00:19:08.349Z,32.20
2018-11-26T00:20:13.969Z,33.20
2018-11-26T00:21:19.439Z,32.53
2018-11-26T00:22:24.917Z,30.93
2018-11-26T00:23:30.394Z,31.30
2018-11-26T00:24:35.967Z,32.23
2018-11-26T00:25:41.680Z,28.63
2018-11-26T00:26:47.200Z,32.30
2018-11-26T00:27:53.133Z,33.07
2018-11-26T00:28:58.638Z,31.07
2018-11-26T00:30:04.188Z,31.80
2018-11-26T00:31:09.697Z,31.83
2018-11-26T00:32:15.167Z,31.50
2018-11-26T00:33:20.707Z,30.97
2018-11-26T00:34:26.209Z,33.23
2018-11-26T00:35:31.642Z,31.57
2018-11-26T00:36:37.200Z,29.30
2018-11-26T00:37:42.746Z,28.60
2018-11-26T00:38:48.209Z,31.03
2018-11-26T00:39:53.778Z,29.80
2018-11-26T00:40:59.193Z,32.53
2018-11-26T00:42:04.794Z,32.77
2018-11-26T00:43:10.216Z,32.47
2018-11-26T00:44:15.658Z,30.90
2018-11-26T00:45:21.212Z,32.60
2018-11-26T00:46:26.686Z,32.10
2018-11-26T00:47:32.214Z,32.97
2018-11-26T00:48:37.749Z,30.33
2018-11-26T00:49:43.181Z,32.60
2018-11-26T00:50:48.713Z,33.10
2018-11-26T00:51:54.179Z,33.63
2018-11-26T00:52:59.637Z,33.90
2018-11-26T00:54:05.235Z,34.07
2018-11-26T00:55:11.943Z,33.00
2018-11-26T00:56:17.450Z,32.23
2018-11-26T00:57:22.895Z,30.30
2018-11-26T00:58:28.377Z,30.60
2018-11-26T00:59:34.058Z,33.43
2018-11-26T01:00:39.485Z,30.83
2018-11-26T01:01:45.022Z,31.63
2018-11-26T01:02:50.513Z,29.93
2018-11-26T01:03:56.034Z,31.20
2018-11-26T01:05:01.663Z,32.30
2018-11-26T01:06:07.246Z,34.10
2018-11-26T01:07:12.774Z,27.77
2018-11-26T01:08:18.304Z,33.23
2018-11-26T01:09:23.765Z,32.23
2018-11-26T01:10:29.198Z,31.80
2018-11-26T01:11:34.694Z,32.97
2018-11-26T01:12:40.187Z,32.10
2018-11-26T01:13:45.712Z,34.57
2018-11-26T01:14:51.219Z,32.77
2018-11-26T01:15:56.805Z,34.33
2018-11-26T01:17:02.348Z,31.20
2018-11-26T01:18:08.180Z,32.67
2018-11-26T01:19:13.619Z,32.33
2018-11-26T01:20:19.074Z,30.30
2018-11-26T01:21:24.677Z,32.53
2018-11-26T01:22:30.226Z,30.90
2018-11-26T01:23:35.709Z,32.90
2018-11-26T01:24:41.135Z,35.20
2018-11-26T01:25:46.623Z,32.43
2018-11-26T01:26:52.026Z,34.00
2018-11-26T01:27:57.561Z,34.00
2018-11-26T01:29:03.147Z,33.70
2018-11-26T01:30:10.221Z,35.97
2018-11-26T01:31:15.734Z,34.13
2018-11-26T01:32:21.175Z,30.60
2018-11-26T01:33:26.640Z,32.83
2018-11-26T01:34:32.102Z,32.70
2018-11-26T01:35:37.656Z,33.50
2018-11-26T01:36:43.148Z,33.63
2018-11-26T01:37:48.546Z,31.03
2018-11-26T01:38:54.670Z,31.90
2018-11-26T01:40:00.204Z,34.73
2018-11-26T01:41:05.738Z,32.77
2018-11-26T01:42:11.238Z,32.77
2018-11-26T01:43:17.038Z,33.10
2018-11-26T01:44:22.582Z,33.33
2018-11-26T01:45:28.178Z,34.33
2018-11-26T01:46:33.666Z,32.10
2018-11-26T01:47:39.360Z,31.93
2018-11-26T01:48:44.792Z,35.63
2018-11-26T01:49:50.237Z,34.17
2018-11-26T01:50:55.800Z,35.10
2018-11-26T01:52:01.302Z,33.30
2018-11-26T01:53:08.134Z,34.87
2018-11-26T01:54:13.537Z,33.23
2018-11-26T01:55:19.091Z,31.73
2018-11-26T01:56:24.582Z,34.57
2018-11-26T01:57:30.258Z,35.83
2018-11-26T01:58:35.806Z,32.47
2018-11-26T01:59:41.255Z,32.97
2018-11-26T02:00:46.784Z,34.97
2018-11-26T02:01:52.192Z,32.43
2018-11-26T02:02:57.726Z,32.03
2018-11-26T02:04:03.382Z,35.30
2018-11-26T02:05:08.978Z,34.83
2018-11-26T02:06:14.498Z,35.70
2018-11-26T02:07:20.051Z,34.03
2018-11-26T02:08:25.635Z,34.43
2018-11-26T02:09:31.122Z,33.53
2018-11-26T02:10:36.756Z,34.93
2018-11-26T02:11:42.158Z,32.07
2018-11-26T02:12:47.760Z,33.67
2018-11-26T02:13:53.334Z,34.13
2018-11-26T02:14:58.879Z,35.23
2018-11-26T02:16:04.346Z,34.43
2018-11-26T02:17:09.947Z,36.33
2018-11-26T02:18:15.483Z,34.97
2018-11-26T02:19:21.041Z,33.00
2018-11-26T02:20:26.544Z,34.50
2018-11-26T02:21:32.253Z,35.03
2018-11-26T02:22:38.143Z,38.10
2018-11-26T02:23:43.569Z,36.37
2018-11-26T02:24:49.211Z,33.60
2018-11-26T02:25:54.697Z,37.10
2018-11-26T02:27:00.284Z,35.80
2018-11-26T02:28:06.011Z,33.30
2018-11-26T02:29:11.571Z,36.10
2018-11-26T02:30:17.165Z,34.33
2018-11-26T02:31:22.738Z,36.27
2018-11-26T02:32:28.209Z,34.47
2018-11-26T02:33:33.819Z,34.83
2018-11-26T02:34:39.343Z,33.43
2018-11-26T02:35:44.867Z,36.37
2018-11-26T02:36:50.436Z,35.20
2018-11-26T02:37:55.957Z,34.60
2018-11-26T02:39:01.490Z,40.23
2018-11-26T02:40:10.846Z,37.77
2018-11-26T02:41:16.402Z,34.33
2018-11-26T02:42:21.963Z,34.93
2018-11-26T02:43:27.414Z,35.63
2018-11-26T02:44:32.984Z,36.57
2018-11-26T02:45:38.458Z,34.50
2018-11-26T02:46:43.944Z,36.13
2018-11-26T02:47:49.479Z,33.80
2018-11-26T02:48:54.952Z,36.23
2018-11-26T02:50:00.461Z,36.47
2018-11-26T02:51:06.259Z,35.70
2018-11-26T02:52:11.820Z,34.73
2018-11-26T02:53:17.323Z,35.30
2018-11-26T02:54:22.850Z,36.17
2018-11-26T02:55:28.347Z,35.33
2018-11-26T02:56:33.843Z,33.07
2018-11-26T02:57:39.353Z,35.07
2018-11-26T02:58:44.817Z,34.57
2018-11-26T02:59:50.242Z,34.70
2018-11-26T03:00:55.738Z,34.60
2018-11-26T03:02:01.285Z,36.63
2018-11-26T03:03:07.198Z,34.13
2018-11-26T03:04:16.246Z,36.50
2018-11-26T03:05:30.483Z,34.63
2018-11-26T03:06:36.170Z,32.70
2018-11-26T03:07:41.781Z,36.03
2018-11-26T03:08:47.265Z,35.50
2018-11-26T03:09:52.772Z,32.30
2018-11-26T03:10:58.250Z,33.70
2018-11-26T03:12:03.759Z,36.70
2018-11-26T03:13:09.337Z,36.67
2018-11-26T03:14:14.801Z,35.00
2018-11-26T03:15:20.533Z,36.50
2018-11-26T03:16:26.100Z,33.60
2018-11-26T03:17:31.600Z,34.40
2018-11-26T03:18:37.287Z,36.47
2018-11-26T03:19:42.826Z,33.93
2018-11-26T03:20:48.338Z,35.70
2018-11-26T03:21:53.770Z,35.17
2018-11-26T03:22:59.236Z,36.07
2018-11-26T03:24:04.718Z,37.83
2018-11-26T03:25:11.712Z,35.17
2018-11-26T03:26:17.174Z,34.87
2018-11-26T03:27:22.727Z,34.23
2018-11-26T03:28:28.286Z,34.20
2018-11-26T03:29:33.811Z,33.73
2018-11-26T03:30:39.328Z,33.37
2018-11-26T03:31:44.779Z,32.37
2018-11-26T03:32:50.444Z,37.80
2018-11-26T03:33:56.067Z,36.40
2018-11-26T03:35:01.702Z,38.00
2018-11-26T03:36:07.664Z,33.13
2018-11-26T03:37:13.189Z,35.10
2018-11-26T03:39:00.706Z,36.57
2018-11-26T03:40:09.869Z,33.60
2018-11-26T03:41:15.274Z,36.00
2018-11-26T03:42:21.002Z,35.33
2018-11-26T03:43:26.537Z,35.70
2018-11-26T03:44:32.058Z,35.73
2018-11-26T03:45:37.802Z,34.37
2018-11-26T03:46:43.320Z,37.53
2018-11-26T03:47:48.886Z,32.67
2018-11-26T03:48:54.536Z,34.27
2018-11-26T03:50:00.175Z,35.17
2018-11-26T03:51:05.955Z,35.60
2018-11-26T03:52:11.430Z,37.20
2018-11-26T03:53:16.919Z,37.17
2018-11-26T03:54:22.450Z,35.23
2018-11-26T03:55:27.902Z,36.43
2018-11-26T03:56:33.624Z,34.13
2018-11-26T03:57:39.246Z,35.47
2018-11-26T03:58:44.850Z,33.83
2018-11-26T03:59:50.341Z,34.03
2018-11-26T04:00:55.890Z,33.83
2018-11-26T04:02:01.606Z,32.73
2018-11-26T04:03:07.064Z,33.37
2018-11-26T04:04:12.509Z,35.20
2018-11-26T04:05:18.065Z,35.70
2018-11-26T04:06:23.590Z,34.00
2018-11-26T04:07:29.179Z,33.10
2018-11-26T04:08:34.666Z,32.87
2018-11-26T04:09:40.084Z,34.00
2018-11-26T04:10:45.610Z,31.30
2018-11-26T04:11:51.091Z,34.30
2018-11-26T04:12:56.526Z,34.70
2018-11-26T04:14:01.945Z,36.63
2018-11-26T04:15:10.122Z,36.77
2018-11-26T04:16:15.684Z,33.33
2018-11-26T04:17:21.074Z,33.20
2018-11-26T04:18:26.498Z,33.47
2018-11-26T04:19:32.084Z,33.87
2018-11-26T04:20:37.599Z,33.73
2018-11-26T04:21:43.214Z,35.80
2018-11-26T04:22:48.682Z,33.00
2018-11-26T04:23:54.418Z,35.87
2018-11-26T04:24:59.841Z,34.60
2018-11-26T04:26:05.399Z,36.60
2018-11-26T04:27:10.870Z,33.00
2018-11-26T04:28:16.386Z,35.20
2018-11-26T04:29:21.851Z,33.77
2018-11-26T04:30:27.388Z,34.50
2018-11-26T04:31:32.816Z,31.07
2018-11-26T04:32:39.282Z,34.93
2018-11-26T04:33:44.848Z,33.03
2018-11-26T04:34:50.408Z,33.30
2018-11-26T04:35:56.133Z,32.80
2018-11-26T04:37:01.680Z,34.07
2018-11-26T04:38:07.362Z,33.63
2018-11-26T04:39:12.766Z,32.00
2018-11-26T04:40:18.186Z,32.20
2018-11-26T04:41:23.588Z,31.80
2018-11-26T04:42:29.079Z,33.10
2018-11-26T04:43:34.635Z,32.70
2018-11-26T04:44:40.957Z,33.17
2018-11-26T04:45:46.412Z,31.60
2018-11-26T04:46:53.577Z,32.20
2018-11-26T04:47:59.045Z,32.23
2018-11-26T04:49:04.850Z,33.50
2018-11-26T04:50:13.072Z,31.70
2018-11-26T04:51:18.658Z,33.03
2018-11-26T04:52:24.097Z,31.60
2018-11-26T04:53:29.719Z,32.10
2018-11-26T04:54:35.295Z,34.30
2018-11-26T04:55:40.810Z,33.60
2018-11-26T04:56:46.421Z,35.70
2018-11-26T04:57:51.836Z,35.20
2018-11-26T04:58:57.262Z,31.97
2018-11-26T05:00:02.787Z,31.00
2018-11-26T05:01:08.288Z,32.60
2018-11-26T05:02:13.814Z,33.50
2018-11-26T05:03:19.338Z,32.60
2018-11-26T05:04:24.783Z,32.90
2018-11-26T05:05:30.390Z,33.97
2018-11-26T05:06:35.930Z,33.23
2018-11-26T05:07:41.407Z,32.70
2018-11-26T05:08:46.870Z,33.03
2018-11-26T05:09:52.299Z,32.13
2018-11-26T05:10:57.757Z,32.70
2018-11-26T05:12:03.351Z,33.20
2018-11-26T05:13:08.827Z,35.83
2018-11-26T05:14:14.490Z,35.10
2018-11-26T05:15:20.035Z,32.00
2018-11-26T05:16:25.566Z,32.20
2018-11-26T05:17:31.077Z,35.07
2018-11-26T05:18:36.530Z,33.27
2018-11-26T05:19:42.151Z,30.63
2018-11-26T05:20:47.634Z,33.87
2018-11-26T05:21:53.227Z,32.60
2018-11-26T05:22:58.690Z,30.83
2018-11-26T05:24:04.138Z,33.60
2018-11-26T05:25:11.185Z,33.60
2018-11-26T05:26:16.695Z,31.03
2018-11-26T05:27:22.086Z,31.40
2018-11-26T05:28:27.525Z,28.73
2018-11-26T05:29:32.958Z,33.27
2018-11-26T05:30:38.412Z,34.13
2018-11-26T05:31:43.977Z,30.77
2018-11-26T05:32:49.618Z,33.27
2018-11-26T05:33:55.138Z,30.10
2018-11-26T05:35:00.637Z,32.27
2018-11-26T05:36:06.279Z,31.43
2018-11-26T05:37:11.807Z,31.77
2018-11-26T05:38:17.594Z,33.03
2018-11-26T05:39:23.258Z,31.23
2018-11-26T05:40:28.690Z,31.57
2018-11-26T05:41:34.230Z,31.30
2018-11-26T05:42:40.015Z,31.13
2018-11-26T05:43:45.536Z,31.67
2018-11-26T05:44:51.103Z,27.13
2018-11-26T05:45:56.615Z,28.77
2018-11-26T05:47:02.106Z,29.00
2018-11-26T05:48:07.698Z,32.27
2018-11-26T05:49:13.472Z,30.57
2018-11-26T05:50:19.027Z,31.40
2018-11-26T05:51:24.617Z,29.57
2018-11-26T05:52:30.067Z,29.57
2018-11-26T05:53:35.506Z,30.73
2018-11-26T05:54:40.972Z,32.37
2018-11-26T05:55:46.455Z,29.57
2018-11-26T05:56:52.021Z,28.70
2018-11-26T05:57:57.470Z,31.23
2018-11-26T05:59:02.906Z,29.87
2018-11-26T06:00:21.719Z,31.83
2018-11-26T06:01:27.202Z,29.63
2018-11-26T06:02:32.668Z,31.00
2018-11-26T06:03:38.310Z,28.60
2018-11-26T06:04:43.821Z,28.37
2018-11-26T06:05:49.376Z,30.60
2018-11-26T06:06:55.008Z,31.20
2018-11-26T06:08:00.441Z,27.57
2018-11-26T06:09:09.543Z,28.07
2018-11-26T06:10:15.081Z,30.70
2018-11-26T06:11:20.639Z,31.27
2018-11-26T06:12:26.169Z,27.80
2018-11-26T06:13:31.718Z,30.20
2018-11-26T06:14:37.183Z,32.63
2018-11-26T06:15:42.748Z,28.50
2018-11-26T06:16:53.472Z,30.80
2018-11-26T06:17:53.837Z,30.90
2018-11-26T06:18:59.290Z,27.90
2018-11-26T06:20:05.727Z,30.60
2018-11-26T06:21:11.159Z,30.73
2018-11-26T06:22:16.597Z,29.03
2018-11-26T06:23:22.131Z,31.70
2018-11-26T06:24:27.962Z,29.37
2018-11-26T06:25:33.446Z,29.13
2018-11-26T06:26:39.030Z,28.83
2018-11-26T06:27:45.119Z,29.80
2018-11-26T06:28:50.579Z,30.97
2018-11-26T06:29:55.999Z,28.63
2018-11-26T06:31:01.424Z,31.47
2018-11-26T06:32:06.906Z,29.57
2018-11-26T06:33:12.412Z,30.30
2018-11-26T06:34:17.995Z,32.03
2018-11-26T06:35:24.317Z,30.50
2018-11-26T06:37:32.906Z,29.83
2018-11-26T06:38:38.414Z,28.67
2018-11-26T06:39:43.959Z,30.47
2018-11-26T06:40:49.514Z,30.57
2018-11-26T06:41:55.028Z,31.10
2018-11-26T06:43:00.462Z,32.17
2018-11-26T06:44:07.515Z,29.20
2018-11-26T06:45:20.029Z,31.83
2018-11-26T06:46:25.443Z,31.20
2018-11-26T06:47:30.944Z,32.23
2018-11-26T06:48:37.183Z,32.57
2018-11-26T06:49:42.788Z,33.87
2018-11-26T06:50:48.452Z,31.77
2018-11-26T06:51:53.935Z,32.53
2018-11-26T06:52:59.479Z,32.23
2018-11-26T06:54:04.956Z,31.73
2018-11-26T06:55:13.910Z,31.90
2018-11-26T06:56:19.423Z,27.13
2018-11-26T06:57:24.935Z,30.00
2018-11-26T06:58:30.444Z,31.93
2018-11-26T06:59:36.007Z,32.63
2018-11-26T07:00:41.532Z,32.63
2018-11-26T07:01:47.116Z,29.43
2018-11-26T07:02:52.630Z,32.97
2018-11-26T07:03:58.153Z,32.00
2018-11-26T07:05:04.154Z,31.17
2018-11-26T07:06:09.699Z,29.83
2018-11-26T07:07:15.413Z,29.63
2018-11-26T07:08:20.820Z,29.07
2018-11-26T07:09:26.262Z,31.43
2018-11-26T07:10:31.711Z,31.90
2018-11-26T07:11:37.497Z,32.60
2018-11-26T07:12:43.278Z,30.13
2018-11-26T07:13:48.736Z,34.10
2018-11-26T07:14:54.273Z,33.27
2018-11-26T07:15:59.678Z,32.17
2018-11-26T07:17:05.229Z,30.63
2018-11-26T07:18:10.801Z,32.53
2018-11-26T07:19:16.239Z,32.10
2018-11-26T07:20:22.732Z,34.93
2018-11-26T07:21:28.190Z,30.50
2018-11-26T07:22:33.718Z,29.93
2018-11-26T07:23:39.153Z,29.27
2018-11-26T07:24:44.749Z,30.50
2018-11-26T07:25:50.239Z,30.80
2018-11-26T07:26:55.818Z,30.70
2018-11-26T07:28:01.302Z,31.93
2018-11-26T07:29:06.915Z,31.23
2018-11-26T07:30:17.926Z,32.00
2018-11-26T07:31:23.342Z,31.87
2018-11-26T07:32:28.855Z,32.60
2018-11-26T07:33:34.442Z,34.13
2018-11-26T07:34:40.414Z,30.77
2018-11-26T07:35:46.005Z,34.03
2018-11-26T07:36:51.402Z,32.43
2018-11-26T07:37:56.911Z,31.63
2018-11-26T07:39:02.435Z,33.37
2018-11-26T07:40:18.682Z,33.07
2018-11-26T07:41:24.329Z,30.90
2018-11-26T07:42:29.747Z,33.03
2018-11-26T07:43:35.282Z,34.43
2018-11-26T07:44:40.829Z,33.37
2018-11-26T07:45:46.323Z,32.17
2018-11-26T07:46:51.837Z,34.93
2018-11-26T07:47:57.514Z,34.33
2018-11-26T07:49:03.003Z,32.63
2018-11-26T07:50:15.217Z,34.70
2018-11-26T07:51:20.766Z,33.07
2018-11-26T07:52:26.257Z,31.57
2018-11-26T07:53:31.793Z,34.67
2018-11-26T07:54:37.247Z,34.50
2018-11-26T07:55:43.049Z,34.37
2018-11-26T07:56:48.588Z,33.90
2018-11-26T07:57:54.153Z,35.67
2018-11-26T07:58:59.642Z,33.03
2018-11-26T08:00:11.539Z,34.47
2018-11-26T08:01:17.162Z,32.27
2018-11-26T08:02:22.595Z,34.07
2018-11-26T08:03:28.072Z,35.17
2018-11-26T08:04:33.574Z,35.20
2018-11-26T08:05:39.018Z,36.10
2018-11-26T08:06:44.637Z,32.53
2018-11-26T08:07:50.129Z,36.33
2018-11-26T08:08:55.595Z,32.97
2018-11-26T08:10:01.117Z,34.67
2018-11-26T08:11:08.113Z,34.10
2018-11-26T08:12:13.611Z,32.50
2018-11-26T08:13:19.287Z,34.13
2018-11-26T08:14:24.784Z,30.70
2018-11-26T08:15:30.331Z,35.57
2018-11-26T08:16:38.252Z,31.73
2018-11-26T08:17:43.972Z,33.00
2018-11-26T08:18:50.788Z,35.97
2018-11-26T08:19:56.683Z,34.60
2018-11-26T08:21:02.138Z,32.17
2018-11-26T08:22:07.680Z,36.67
2018-11-26T08:23:13.155Z,30.67
2018-11-26T08:24:18.823Z,34.23
2018-11-26T08:25:24.962Z,30.73
2018-11-26T08:26:30.495Z,34.80
2018-11-26T08:27:35.982Z,31.10
2018-11-26T08:28:41.564Z,31.27
2018-11-26T08:29:47.143Z,32.43
2018-11-26T08:30:52.672Z,33.53
2018-11-26T08:31:58.143Z,29.93
2018-11-26T08:33:04.035Z,32.50
2018-11-26T08:34:09.577Z,32.13
2018-11-26T08:35:16.718Z,30.67
2018-11-26T08:36:27.370Z,32.33
2018-11-26T08:37:33.870Z,30.53
2018-11-26T08:38:44.424Z,31.53
2018-11-26T08:39:56.534Z,31.27
2018-11-26T08:41:07.371Z,29.57
2018-11-26T08:42:18.152Z,31.10
2018-11-26T08:43:28.864Z,29.27
2018-11-26T08:44:39.746Z,29.40
2018-11-26T08:45:54.054Z,29.60
2018-11-26T08:47:04.035Z,28.50
2018-11-26T08:48:15.979Z,30.40
2018-11-26T08:49:26.642Z,30.43
2018-11-26T08:50:32.165Z,30.37
2018-11-26T08:51:37.712Z,27.80
2018-11-26T08:52:43.270Z,28.80
2018-11-26T08:53:48.834Z,29.77
2018-11-26T08:54:54.282Z,27.17
2018-11-26T08:55:59.787Z,29.33
2018-11-26T08:57:05.183Z,29.70
2018-11-26T08:58:10.617Z,29.23
2018-11-26T08:59:16.166Z,27.10
2018-11-26T09:00:21.578Z,28.77
2018-11-26T09:01:32.359Z,27.13
2018-11-26T09:02:43.023Z,27.87
2018-11-26T09:03:53.421Z,27.60
2018-11-26T09:05:04.890Z,28.00
2018-11-26T09:06:10.446Z,31.10
2018-11-26T09:07:16.131Z,29.30
2018-11-26T09:08:21.627Z,28.90
2018-11-26T09:09:32.808Z,28.27
2018-11-26T09:10:32.619Z,25.80
2018-11-26T09:11:39.028Z,28.37
2018-11-26T09:12:44.586Z,27.80
2018-11-26T09:13:50.137Z,28.30
2018-11-26T09:14:55.658Z,26.80
2018-11-26T09:16:01.211Z,31.33
2018-11-26T09:17:06.861Z,29.57
2018-11-26T09:18:12.499Z,27.30
2018-11-26T09:19:18.206Z,26.30
2018-11-26T09:20:23.661Z,29.03
2018-11-26T09:21:29.099Z,27.90
2018-11-26T09:22:34.679Z,25.30
2018-11-26T09:23:40.190Z,25.87
2018-11-26T09:24:45.635Z,26.90
2018-11-26T09:25:51.086Z,29.40
2018-11-26T09:26:56.606Z,25.80
2018-11-26T09:28:02.186Z,30.47
2018-11-26T09:29:08.034Z,27.53
2018-11-26T09:30:15.538Z,26.33
2018-11-26T09:31:20.956Z,26.10
2018-11-26T09:32:26.455Z,24.67
2018-11-26T09:33:31.899Z,24.23
2018-11-26T09:34:37.363Z,25.40
2018-11-26T09:35:42.913Z,25.23
2018-11-26T09:36:48.495Z,25.83
2018-11-26T09:37:53.990Z,27.47
2018-11-26T09:38:59.456Z,26.50
2018-11-26T09:40:05.942Z,26.60
2018-11-26T09:41:11.849Z,27.60
2018-11-26T09:42:17.429Z,23.57
2018-11-26T09:43:22.943Z,25.97
2018-11-26T09:44:28.484Z,24.40
2018-11-26T09:45:40.067Z,28.03
2018-11-26T09:46:39.628Z,25.87
2018-11-26T09:47:45.364Z,26.50
2018-11-26T09:48:50.855Z,27.30
2018-11-26T09:49:57.096Z,26.80
2018-11-26T09:51:02.567Z,24.83
2018-11-26T09:52:08.169Z,21.87
2018-11-26T09:53:13.570Z,25.50
2018-11-26T09:54:25.836Z,25.53
2018-11-26T09:55:24.571Z,25.97
2018-11-26T09:56:30.122Z,25.13
2018-11-26T09:57:35.643Z,25.30
2018-11-26T09:58:41.231Z,24.83
2018-11-26T09:59:46.676Z,25.90
2018-11-26T10:00:52.142Z,25.07
2018-11-26T10:01:57.645Z,25.17
2018-11-26T10:03:03.185Z,23.90
2018-11-26T10:04:08.638Z,22.40
2018-11-26T10:05:18.196Z,26.03
2018-11-26T10:06:23.620Z,24.53
2018-11-26T10:07:29.151Z,23.70
2018-11-26T10:08:34.813Z,22.20
2018-11-26T10:09:40.279Z,23.10
2018-11-26T10:10:45.778Z,22.17
2018-11-26T10:11:51.205Z,23.83
2018-11-26T10:12:56.642Z,24.03
2018-11-26T10:14:02.468Z,23.23
2018-11-26T10:15:38.756Z,24.10
2018-11-26T10:16:44.201Z,20.07
2018-11-26T10:17:49.723Z,20.47
2018-11-26T10:18:55.140Z,24.33
2018-11-26T10:20:00.641Z,23.40
2018-11-26T10:21:06.376Z,21.60
2018-11-26T10:22:11.894Z,22.20
2018-11-26T10:23:17.338Z,20.63
2018-11-26T10:24:22.811Z,22.47
2018-11-26T10:25:28.323Z,21.63
2018-11-26T10:26:33.790Z,21.20
2018-11-26T10:27:39.303Z,22.50
2018-11-26T10:28:44.774Z,21.83
2018-11-26T10:29:50.339Z,21.90
2018-11-26T10:30:55.860Z,19.87
2018-11-26T10:32:01.597Z,22.90
2018-11-26T10:33:14.421Z,23.27
2018-11-26T10:34:13.267Z,22.67
2018-11-26T10:35:19.946Z,23.63
2018-11-26T10:36:25.478Z,23.13
2018-11-26T10:37:30.967Z,22.30
2018-11-26T10:38:36.457Z,21.60
2018-11-26T10:39:41.902Z,20.67
2018-11-26T10:40:47.468Z,23.10
2018-11-26T10:41:52.930Z,21.57
2018-11-26T10:42:58.568Z,22.20
2018-11-26T10:44:03.994Z,21.70
2018-11-26T10:45:13.244Z,22.67
2018-11-26T10:46:18.676Z,22.43
2018-11-26T10:47:24.174Z,24.27
2018-11-26T10:48:29.748Z,21.70
2018-11-26T10:49:35.178Z,23.37
2018-11-26T10:50:40.662Z,23.87
2018-11-26T10:51:46.175Z,22.43
2018-11-26T10:52:54.578Z,22.23
2018-11-26T10:54:00.059Z,22.00
2018-11-26T10:55:07.381Z,21.90
2018-11-26T10:56:12.886Z,22.10
2018-11-26T10:57:18.386Z,21.20
2018-11-26T10:58:23.834Z,20.00
2018-11-26T10:59:29.440Z,22.03
2018-11-26T11:00:41.715Z,22.17
2018-11-26T11:01:47.858Z,22.67
2018-11-26T11:02:53.495Z,22.70
2018-11-26T11:03:59.033Z,22.80
2018-11-26T11:05:04.596Z,21.80
2018-11-26T11:06:10.131Z,24.40
2018-11-26T11:07:15.678Z,23.00
2018-11-26T11:08:21.146Z,22.93
2018-11-26T11:09:26.615Z,23.20
2018-11-26T11:10:33.599Z,22.17
2018-11-26T11:11:39.296Z,23.33
2018-11-26T11:12:44.791Z,21.93
2018-11-26T11:13:50.191Z,21.63
2018-11-26T11:14:55.627Z,22.63
2018-11-26T11:16:01.162Z,19.80
2018-11-26T11:17:07.147Z,21.37
2018-11-26T11:18:12.856Z,22.17
2018-11-26T11:19:18.335Z,21.63
2018-11-26T11:20:26.428Z,22.10
2018-11-26T11:21:31.990Z,23.97
2018-11-26T11:22:37.502Z,21.50
2018-11-26T11:23:43.047Z,20.70
2018-11-26T11:24:48.574Z,22.07
2018-11-26T11:25:54.134Z,23.83
2018-11-26T11:26:59.638Z,21.53
2018-11-26T11:28:05.696Z,20.67
2018-11-26T11:29:11.176Z,21.00
2018-11-26T11:30:27.232Z,21.60
2018-11-26T11:31:32.693Z,23.23
2018-11-26T11:32:38.237Z,24.13
2018-11-26T11:33:43.685Z,23.97
2018-11-26T11:34:49.245Z,22.67
2018-11-26T11:35:54.883Z,20.80
2018-11-26T11:37:00.408Z,22.67
2018-11-26T11:38:06.080Z,24.27
2018-11-26T11:39:11.692Z,22.60
2018-11-26T11:40:22.368Z,20.57
2018-11-26T11:41:27.980Z,19.33
2018-11-26T11:42:33.403Z,22.50
2018-11-26T11:43:38.945Z,21.70
2018-11-26T11:44:44.412Z,21.57
2018-11-26T11:45:49.952Z,21.53
2018-11-26T11:46:55.791Z,21.80
2018-11-26T11:48:01.253Z,19.90
2018-11-26T11:49:07.036Z,21.33
2018-11-26T11:50:17.233Z,21.00
2018-11-26T11:51:22.758Z,20.47
2018-11-26T11:52:28.232Z,20.10
2018-11-26T11:53:33.791Z,22.83
2018-11-26T11:54:39.359Z,20.20
2018-11-26T11:55:45.079Z,21.07
2018-11-26T11:56:50.609Z,21.60
2018-11-26T11:57:56.148Z,20.70
2018-11-26T11:59:01.690Z,19.97
2018-11-26T12:00:25.455Z,18.97
2018-11-26T12:01:31.032Z,20.53
2018-11-26T12:02:39.598Z,22.30
2018-11-26T12:03:45.232Z,20.10
2018-11-26T12:04:50.898Z,22.90
2018-11-26T12:05:56.399Z,19.80
2018-11-26T12:07:01.848Z,21.90
2018-11-26T12:08:09.036Z,18.67
2018-11-26T12:09:14.507Z,19.67
2018-11-26T12:10:20.085Z,20.33
2018-11-26T12:11:25.598Z,21.03
2018-11-26T12:12:31.101Z,20.10
2018-11-26T12:13:36.744Z,20.23
2018-11-26T12:14:42.217Z,21.23
2018-11-26T12:15:52.186Z,21.00
2018-11-26T12:16:57.746Z,23.03
2018-11-26T12:18:03.328Z,21.87
2018-11-26T12:19:09.050Z,21.63
2018-11-26T12:20:15.711Z,21.60
2018-11-26T12:21:21.247Z,23.20
2018-11-26T12:22:26.705Z,20.37
2018-11-26T12:23:32.255Z,19.30
2018-11-26T12:24:37.701Z,21.37
2018-11-26T12:25:43.275Z,21.10
2018-11-26T12:26:48.716Z,21.67
2018-11-26T12:27:54.517Z,22.40
2018-11-26T12:28:59.980Z,19.83
2018-11-26T12:30:13.876Z,21.57
2018-11-26T12:31:19.441Z,19.83
2018-11-26T12:32:24.853Z,22.50
2018-11-26T12:33:30.345Z,22.53
2018-11-26T12:34:35.761Z,19.97
2018-11-26T12:35:41.494Z,20.33
2018-11-26T12:36:47.223Z,20.47
2018-11-26T12:37:52.939Z,21.57
2018-11-26T12:38:58.420Z,21.67
2018-11-26T12:40:04.144Z,21.17
2018-11-26T12:41:09.643Z,19.73
2018-11-26T12:42:15.242Z,18.50
2018-11-26T12:43:20.848Z,20.03
2018-11-26T12:44:37.518Z,18.53
2018-11-26T12:45:43.103Z,20.20
2018-11-26T12:46:48.616Z,19.43
2018-11-26T12:47:54.052Z,18.90
2018-11-26T12:48:59.610Z,17.47
2018-11-26T12:50:05.626Z,20.10
2018-11-26T12:51:11.200Z,19.07
2018-11-26T12:52:16.731Z,19.07
2018-11-26T12:53:22.176Z,19.77
2018-11-26T12:54:27.631Z,20.60
2018-11-26T12:55:33.311Z,20.20
2018-11-26T12:56:38.913Z,19.50
2018-11-26T12:57:45.784Z,16.33
2018-11-26T12:58:51.326Z,18.87
2018-11-26T12:59:56.747Z,19.60
2018-11-26T13:01:02.222Z,21.30
2018-11-26T13:02:08.924Z,19.53
2018-11-26T13:03:14.799Z,17.70
2018-11-26T13:04:20.261Z,19.20
2018-11-26T13:05:25.892Z,18.77
2018-11-26T13:06:33.935Z,17.97
2018-11-26T13:07:39.457Z,17.30
2018-11-26T13:08:44.960Z,17.17
2018-11-26T13:09:50.488Z,17.03
2018-11-26T13:10:55.998Z,16.90
2018-11-26T13:12:01.530Z,17.30
2018-11-26T13:13:08.739Z,17.57
2018-11-26T13:14:14.242Z,17.93
2018-11-26T13:15:23.342Z,17.30
2018-11-26T13:16:28.919Z,16.07
2018-11-26T13:17:34.464Z,17.53
2018-11-26T13:18:40.032Z,18.10
2018-11-26T13:19:45.500Z,19.27
2018-11-26T13:20:50.937Z,17.67
2018-11-26T13:21:56.611Z,17.27
2018-11-26T13:23:02.044Z,17.43
2018-11-26T13:24:07.656Z,15.77
2018-11-26T13:25:14.832Z,16.50
2018-11-26T13:26:20.356Z,19.70
2018-11-26T13:27:25.919Z,16.37
2018-11-26T13:28:31.454Z,16.30
2018-11-26T13:29:36.939Z,16.27
2018-11-26T13:30:45.493Z,18.33
2018-11-26T13:31:50.987Z,17.83
2018-11-26T13:32:58.473Z,17.77
2018-11-26T13:34:04.116Z,18.10
2018-11-26T13:35:12.059Z,18.10
2018-11-26T13:36:17.499Z,17.83
2018-11-26T13:37:23.073Z,18.13
2018-11-26T13:38:28.675Z,19.10
2018-11-26T13:39:34.207Z,17.10
2018-11-26T13:40:39.931Z,18.87
2018-11-26T13:41:45.399Z,18.50
2018-11-26T13:42:51.806Z,16.37
2018-11-26T13:43:57.331Z,17.70
2018-11-26T13:45:02.886Z,17.93
2018-11-26T13:46:08.399Z,17.50
2018-11-26T13:47:13.904Z,17.23
2018-11-26T13:48:20.404Z,16.40
2018-11-26T13:49:25.856Z,15.90
2018-11-26T13:50:34.766Z,16.60
2018-11-26T13:51:40.421Z,16.80
2018-11-26T13:52:45.915Z,17.30
2018-11-26T13:53:51.589Z,17.37
2018-11-26T13:54:57.124Z,16.77
2018-11-26T13:56:02.646Z,16.03
2018-11-26T13:57:08.085Z,17.30
2018-11-26T13:58:13.690Z,16.10
2018-11-26T13:59:19.180Z,16.90
2018-11-26T14:00:24.693Z,17.00
2018-11-26T14:01:30.171Z,15.70
2018-11-26T14:02:35.718Z,16.20
2018-11-26T14:03:41.264Z,17.50
2018-11-26T14:04:46.837Z,20.20
2018-11-26T14:05:52.344Z,16.80
2018-11-26T14:06:57.859Z,18.53
2018-11-26T14:08:03.414Z,16.53
2018-11-26T14:09:10.891Z,18.93
2018-11-26T14:10:21.704Z,18.70
2018-11-26T14:11:27.324Z,18.17
2018-11-26T14:12:33.085Z,15.90